Pagrindinis puslapis
METAR-TAF:

METAR-TAF

Oro uostai :

Bušehras, Iranas

platuma: 28-59N, ilguma: 050-50E, Aukštis: 19 m

Dabartinis oras

Ataskaita buvo paskelbta 42 minutes, ne 03:00 UTC
Ramus vėjas
Temperatūra 28°C
Drėgmė 74%
Slėgis 1002 hPa
Matomumas: 8000 m

METAR: OIBB 290300Z 00000KT 8000 NSC 28/23 Q1002 A2959

Laikas: 08:12 (03:42 UTC)


TAF: trūkstamas

Orai ataskaitas ir orų prognozės (METAR, TAF).

turimą stotys yra geltonos ir raudonos taškus žemėlapyje.

Perkelti pele per norėdami pamatyti stoties vardą.

Tada spustelėkite, norėdami matyti oro stebėjimo ir prognozės.

Norėdami pakeisti žemėlapį: spustelėkite ant žalios mygtukų su juodo kryžiaus žemyn,; žalią mygtuką su brūkšneliu, jei norite nutolinti; arba žalių rodyklių gretimoms žemėlapius.


METAR-TAF: